Time;durP1;ratioP1;P1;durP2;ratioP2;P2;SDS_P1;SDS_P2;PMS_P1;PMS_P2;Temp;Humidity;BMP_temperature;BMP_pressure;BME280_temperature;BME280_humidity;BME280_pressure;Samples;Min_cycle;Max_cycle;Signal;HPM_P1;HPM_P2
2022/02/11 00:00:23;;;;;;;;;;;;;;;;;;4995893;28;20055;-53
2022/02/11 00:07:58;;;;;;;;;;;;;;;;;;4997527;28;19980;-54
2022/02/11 00:10:24;;;;;;;;;;;;;;;;;;5003224;28;19940;-55
2022/02/11 00:12:50;;;;;;;;;;;;;;;;;;4996664;28;19921;-54
2022/02/11 00:18:13;;;;;;;;;;;;;;;;;;4991125;28;19925;-57
2022/02/11 00:20:39;;;;;;;;;;;;;;;;;;4996642;28;19967;-56
2022/02/11 00:23:06;;;;;;;;;;;;;;;;;;5003415;28;20283;-57
2022/02/11 00:25:33;;;;;;;;;;;;;;;;;;4994566;28;19977;-57
2022/02/11 00:30:52;;;;;;;;;;;;;;;;;;4995692;28;19930;-58
2022/02/11 00:35:51;;;;;;;;;;;;;;;;;;4994713;28;19953;-53
2022/02/11 00:38:22;;;;;;;;;;;;;;;;;;4995465;28;19929;-56
2022/02/11 00:44:23;;;;;;;;;;;;;;;;;;4995318;28;19925;-56
2022/02/11 00:46:46;;;;;;;;;;;;;;;;;;4996441;28;19921;-57
2022/02/11 01:02:53;;;;;;;;;;;;;;;;;;5003043;28;19952;-56
2022/02/11 01:05:19;;;;;;;;;;;;;;;;;;5000261;28;19922;-53
2022/02/11 01:07:44;;;;;;;;;;;;;;;;;;4999452;28;19932;-53
2022/02/11 01:10:10;;;;;;;;;;;;;;;;;;5001295;28;19959;-55
2022/02/11 01:12:37;;;;;;;;;;;;;;;;;;4999172;28;22724;-55
2022/02/11 01:15:04;;;;;;;;;;;;;;;;;;4999356;28;19933;-56
2022/02/11 01:17:35;;;;;;;;;;;;;;;;;;5004150;28;19921;-56
2022/02/11 01:20:11;;;;;;;;;;;;;;;;;;4981105;28;20019;-55
2022/02/11 01:22:55;;;;;;;;;;;;;;;;;;4980815;28;19955;-53
2022/02/11 01:28:20;;;;;;;;;;;;;;;;;;4986588;28;20325;-55
2022/02/11 01:36:30;;;;;;;;;;;;;;;;;;4979663;28;19972;-52
2022/02/11 01:39:13;;;;;;;;;;;;;;;;;;4983421;28;19922;-55
2022/02/11 01:50:16;;;;;;;;;;;;;;;;;;4979207;28;20053;-56
2022/02/11 01:58:00;;;;;;;;;;;;;;;;;;4978635;28;20371;-55
2022/02/11 02:03:25;;;;;;;;;;;;;;;;;;4984905;28;20001;-56
2022/02/11 02:11:40;;;;;;;;;;;;;;;;;;4979922;28;20827;-54
2022/02/11 02:19:59;;;;;;;;;;;;;;;;;;4994375;28;19925;-54
2022/02/11 02:28:04;;;;;;;;;;;;;;;;;;4994711;28;19926;-53
2022/02/11 02:38:19;;;;;;;;;;;;;;;;;;4984428;28;20615;-56
2022/02/11 02:57:07;;;;;;;;;;;;;;;;;;4978677;28;19943;-54
2022/02/11 03:16:30;;;;;;;;;;;;;;;;;;4976867;28;19933;-53
2022/02/11 04:08:12;;;;;;;;;;;;;;;;;;4996240;28;19925;-55
2022/02/11 04:21:00;;;;;;;;;;;;;;;;;;5002066;28;19974;-54
2022/02/11 04:23:39;;;;;;;;;;;;;;;;;;4997103;28;19925;-56
2022/02/11 04:26:43;;;;;;;;;;;;;;;;;;5000858;28;19933;-54
2022/02/11 04:56:06;;;;;;;;;;;;;;;;;;5000091;28;19980;-56
2022/02/11 05:01:15;;;;;;;;;;;;;;;;;;5000380;28;19936;-55
2022/02/11 05:03:41;;;;;;;;;;;;;;;;;;4999549;28;19973;-56
2022/02/11 05:06:06;;;;;;;;;;;;;;;;;;5000873;28;20042;-56
2022/02/11 05:08:32;;;;;;;;;;;;;;;;;;4993148;28;19925;-54
2022/02/11 05:10:57;;;;;;;;;;;;;;;;;;4977773;28;20025;-55
2022/02/11 05:13:23;;;;;;;;;;;;;;;;;;4979066;28;20264;-55
2022/02/11 05:15:48;;;;;;;;;;;;;;;;;;4980155;28;20027;-56
2022/02/11 05:18:14;;;;;;;;;;;;;;;;;;4974840;28;20653;-53
2022/02/11 05:20:39;;;;;;;;;;;;;;;;;;4977864;28;19925;-52
2022/02/11 05:23:05;;;;;;;;;;;;;;;;;;4977355;28;19918;-55
2022/02/11 05:25:31;;;;;;;;;;;;;;;;;;4979929;28;20510;-55
2022/02/11 05:27:56;;;;;;;;;;;;;;;;;;4986476;28;20024;-55
2022/02/11 05:30:22;;;;;;;;;;;;;;;;;;4979495;28;20434;-55
2022/02/11 05:32:47;;;;;;;;;;;;;;;;;;4980543;28;19922;-56
2022/02/11 05:35:13;;;;;;;;;;;;;;;;;;4977341;28;19926;-56
2022/02/11 05:37:38;;;;;;;;;;;;;;;;;;4978873;28;19948;-56
2022/02/11 05:40:04;;;;;;;;;;;;;;;;;;4978580;28;19960;-55
2022/02/11 05:42:29;;;;;;;;;;;;;;;;;;4977896;28;20006;-56
2022/02/11 05:44:54;;;;;;;;;;;;;;;;;;4979117;28;19926;-56
2022/02/11 05:47:20;;;;;;;;;;;;;;;;;;4979372;28;19967;-55
2022/02/11 05:49:45;;;;;;;;;;;;;;;;;;4979035;28;19918;-55
2022/02/11 05:52:11;;;;;;;;;;;;;;;;;;4986650;28;19992;-57
2022/02/11 05:54:36;;;;;;;;;;;;;;;;;;4979073;28;19957;-56
2022/02/11 05:57:02;;;;;;;;;;;;;;;;;;4979627;28;19993;-55
2022/02/11 05:59:27;;;;;;;;;;;;;;;;;;4980444;28;19924;-53
2022/02/11 06:01:53;;;;;;;;;;;;;;;;;;4979052;28;19976;-55
2022/02/11 06:04:20;;;;;;;;;;;;;;;;;;4978097;28;20437;-55
2022/02/11 06:06:46;;;;;;;;;;;;;;;;;;4980451;28;19925;-55
2022/02/11 06:09:11;;;;;;;;;;;;;;;;;;4979463;28;19926;-52
2022/02/11 06:11:37;;;;;;;;;;;;;;;;;;4984671;28;19966;-56
2022/02/11 06:14:02;;;;;;;;;;;;;;;;;;4977887;28;20876;-56
2022/02/11 06:16:28;;;;;;;;;;;;;;;;;;4978735;28;19976;-54
2022/02/11 06:18:53;;;;;;;;;;;;;;;;;;4979389;28;19946;-53
2022/02/11 06:21:19;;;;;;;;;;;;;;;;;;4978759;28;19922;-52
2022/02/11 06:23:44;;;;;;;;;;;;;;;;;;4979374;28;19922;-52
2022/02/11 06:26:10;;;;;;;;;;;;;;;;;;4980270;28;19941;-53
2022/02/11 06:28:35;;;;;;;;;;;;;;;;;;4978066;28;19926;-54
2022/02/11 06:31:01;;;;;;;;;;;;;;;;;;4972737;28;20025;-56
2022/02/11 06:33:26;;;;;;;;;;;;;;;;;;4977404;28;20362;-54
2022/02/11 06:35:52;;;;;;;;;;;;;;;;;;4971435;28;20293;-56
2022/02/11 06:38:17;;;;;;;;;;;;;;;;;;4978537;28;19921;-56
2022/02/11 06:40:42;;;;;;;;;;;;;;;;;;4980793;28;19948;-56
2022/02/11 06:43:08;;;;;;;;;;;;;;;;;;4979062;28;19968;-56
2022/02/11 06:45:34;;;;;;;;;;;;;;;;;;4977388;28;19922;-55
2022/02/11 06:47:59;;;;;;;;;;;;;;;;;;4978483;28;20071;-56
2022/02/11 06:50:24;;;;;;;;;;;;;;;;;;4977040;28;20482;-54
2022/02/11 06:52:50;;;;;;;;;;;;;;;;;;4979298;28;20343;-56
2022/02/11 06:55:16;;;;;;;;;;;;;;;;;;4978847;28;19955;-55
2022/02/11 06:57:42;;;;;;;;;;;;;;;;;;4978865;28;20872;-56
2022/02/11 07:00:09;;;;;;;;;;;;;;;;;;4980048;28;19930;-53
2022/02/11 07:02:34;;;;;;;;;;;;;;;;;;4995985;28;19968;-53
2022/02/11 07:05:00;;;;;;;;;;;;;;;;;;4999881;28;19952;-55
2022/02/11 07:07:25;;;;;;;;;;;;;;;;;;4997091;28;19925;-53
2022/02/11 07:09:52;;;;;;;;;;;;;;;;;;4999048;28;19926;-56
2022/02/11 07:12:18;;;;;;;;;;;;;;;;;;4999012;28;20020;-56
2022/02/11 07:14:43;;;;;;;;;;;;;;;;;;5000111;28;20717;-54
2022/02/11 07:17:11;;;;;;;;;;;;;;;;;;4997537;28;19991;-56
2022/02/11 07:19:37;;;;;;;;;;;;;;;;;;5005460;28;19925;-55
2022/02/11 07:22:02;;;;;;;;;;;;;;;;;;4998578;28;19922;-55
2022/02/11 07:24:28;;;;;;;;;;;;;;;;;;4995569;28;19964;-53
2022/02/11 07:26:53;;;;;;;;;;;;;;;;;;4998224;28;20015;-56
2022/02/11 07:29:19;;;;;;;;;;;;;;;;;;4998481;28;20394;-56
2022/02/11 07:31:44;;;;;;;;;;;;;;;;;;4997147;28;20465;-53
2022/02/11 07:34:10;;;;;;;;;;;;;;;;;;4989165;28;19940;-53
2022/02/11 07:36:35;;;;;;;;;;;;;;;;;;4990485;28;19922;-54
2022/02/11 07:39:01;;;;;;;;;;;;;;;;;;5004551;28;19932;-55
2022/02/11 07:41:26;;;;;;;;;;;;;;;;;;4996969;28;19983;-55
2022/02/11 07:43:52;;;;;;;;;;;;;;;;;;4995731;28;19925;-57
2022/02/11 07:46:17;;;;;;;;;;;;;;;;;;4996884;28;19968;-55
2022/02/11 07:48:43;;;;;;;;;;;;;;;;;;4997212;28;19921;-54
2022/02/11 07:51:08;;;;;;;;;;;;;;;;;;4997622;28;20468;-55
2022/02/11 07:53:34;;;;;;;;;;;;;;;;;;4996478;28;20417;-53
2022/02/11 07:56:00;;;;;;;;;;;;;;;;;;4998148;28;19925;-55
2022/02/11 07:58:26;;;;;;;;;;;;;;;;;;4970176;28;20468;-53
2022/02/11 08:00:52;;;;;;;;;;;;;;;;;;4978637;28;19930;-53
2022/02/11 08:03:18;;;;;;;;;;;;;;;;;;4976147;28;19925;-56
2022/02/11 08:05:43;;;;;;;;;;;;;;;;;;4977796;28;19965;-54
2022/02/11 08:08:09;;;;;;;;;;;;;;;;;;4978116;28;19984;-57
2022/02/11 08:10:34;;;;;;;;;;;;;;;;;;4977103;28;20631;-56
2022/02/11 08:13:00;;;;;;;;;;;;;;;;;;4977797;28;19937;-54
2022/02/11 08:15:25;;;;;;;;;;;;;;;;;;4995220;28;19937;-56
2022/02/11 08:17:51;;;;;;;;;;;;;;;;;;4999092;28;20310;-55
2022/02/11 08:20:16;;;;;;;;;;;;;;;;;;4991805;28;19960;-56
2022/02/11 08:22:42;;;;;;;;;;;;;;;;;;4996656;28;19972;-53
2022/02/11 08:25:07;;;;;;;;;;;;;;;;;;4996057;28;19969;-53
2022/02/11 08:27:33;;;;;;;;;;;;;;;;;;4997240;28;19921;-54
2022/02/11 08:29:59;;;;;;;;;;;;;;;;;;4997064;28;19925;-55
2022/02/11 08:32:24;;;;;;;;;;;;;;;;;;4996484;28;19934;-55
2022/02/11 08:34:50;;;;;;;;;;;;;;;;;;4989953;28;19928;-55
2022/02/11 08:37:15;;;;;;;;;;;;;;;;;;4991830;28;19934;-56
2022/02/11 08:39:41;;;;;;;;;;;;;;;;;;4990722;28;19929;-56
2022/02/11 08:42:06;;;;;;;;;;;;;;;;;;4996205;28;19960;-54
2022/02/11 08:44:32;;;;;;;;;;;;;;;;;;4994372;28;20369;-56
2022/02/11 08:46:57;;;;;;;;;;;;;;;;;;4995975;28;19933;-56
2022/02/11 08:49:23;;;;;;;;;;;;;;;;;;4996424;28;19921;-54
2022/02/11 08:51:48;;;;;;;;;;;;;;;;;;4996168;28;19949;-56
2022/02/11 08:54:14;;;;;;;;;;;;;;;;;;4995906;28;20398;-56
2022/02/11 08:56:39;;;;;;;;;;;;;;;;;;4996031;28;19922;-53
2022/02/11 08:59:05;;;;;;;;;;;;;;;;;;4996125;28;19933;-53
2022/02/11 09:01:30;;;;;;;;;;;;;;;;;;4995806;28;19922;-54
2022/02/11 09:03:56;;;;;;;;;;;;;;;;;;4995679;28;19925;-55
2022/02/11 09:06:21;;;;;;;;;;;;;;;;;;4996023;28;19927;-54
2022/02/11 09:08:47;;;;;;;;;;;;;;;;;;5002653;28;19925;-55
2022/02/11 09:11:16;;;;;;;;;;;;;;;;;;4991956;28;20267;-52
2022/02/11 09:13:41;;;;;;;;;;;;;;;;;;5005502;28;20541;-55
2022/02/11 09:16:07;;;;;;;;;;;;;;;;;;4983795;28;19980;-54
2022/02/11 09:18:32;;;;;;;;;;;;;;;;;;4980069;28;21676;-56
2022/02/11 09:20:58;;;;;;;;;;;;;;;;;;4974152;28;19925;-55
2022/02/11 09:23:25;;;;;;;;;;;;;;;;;;4979432;28;19922;-54
2022/02/11 09:25:50;;;;;;;;;;;;;;;;;;4980015;28;20504;-55
2022/02/11 09:28:16;;;;;;;;;;;;;;;;;;4971361;28;20387;-56
2022/02/11 09:30:41;;;;;;;;;;;;;;;;;;4995557;28;19968;-54
2022/02/11 09:33:08;;;;;;;;;;;;;;;;;;4979224;28;19933;-53
2022/02/11 09:35:34;;;;;;;;;;;;;;;;;;4978475;28;19948;-54
2022/02/11 09:37:59;;;;;;;;;;;;;;;;;;4979350;28;19929;-53
2022/02/11 09:40:24;;;;;;;;;;;;;;;;;;4978805;28;19941;-54
2022/02/11 09:42:50;;;;;;;;;;;;;;;;;;4979946;28;19922;-55
2022/02/11 09:45:18;;;;;;;;;;;;;;;;;;4979312;28;20028;-53
2022/02/11 09:47:43;;;;;;;;;;;;;;;;;;4982105;28;19918;-52
2022/02/11 09:50:08;;;;;;;;;;;;;;;;;;4999787;28;19933;-54
2022/02/11 09:52:34;;;;;;;;;;;;;;;;;;4999526;28;19932;-54
2022/02/11 09:55:45;;;;;;;;;;;;;;;;;;4998218;28;19971;-54
2022/02/11 09:57:45;;;;;;;;;;;;;;;;;;4995504;28;19928;-56
2022/02/11 10:00:10;;;;;;;;;;;;;;;;;;5000003;28;20310;-55
2022/02/11 10:02:36;;;;;;;;;;;;;;;;;;4998888;28;20039;-56
2022/02/11 10:05:05;;;;;;;;;;;;;;;;;;4998214;28;19921;-55
2022/02/11 10:07:30;;;;;;;;;;;;;;;;;;4997880;28;19972;-55
2022/02/11 10:09:56;;;;;;;;;;;;;;;;;;4999338;28;19926;-51
2022/02/11 10:12:21;;;;;;;;;;;;;;;;;;4998018;28;20020;-56
2022/02/11 10:14:47;;;;;;;;;;;;;;;;;;4998295;28;20011;-52
2022/02/11 10:17:14;;;;;;;;;;;;;;;;;;4998220;28;19921;-53
2022/02/11 10:19:39;;;;;;;;;;;;;;;;;;5005812;28;19926;-52
2022/02/11 10:22:05;;;;;;;;;;;;;;;;;;4998332;28;19929;-56
2022/02/11 10:24:30;;;;;;;;;;;;;;;;;;4996934;28;19997;-55
2022/02/11 10:26:56;;;;;;;;;;;;;;;;;;4999721;28;20370;-56
2022/02/11 10:29:21;;;;;;;;;;;;;;;;;;4998274;28;19952;-56
2022/02/11 10:31:47;;;;;;;;;;;;;;;;;;4997648;28;19929;-56
2022/02/11 10:34:18;;;;;;;;;;;;;;;;;;4997634;28;19933;-56
2022/02/11 10:36:47;;;;;;;;;;;;;;;;;;4998019;28;19926;-56
2022/02/11 10:39:13;;;;;;;;;;;;;;;;;;4998771;28;19921;-55
2022/02/11 10:41:38;;;;;;;;;;;;;;;;;;4997867;28;20275;-56
2022/02/11 10:44:04;;;;;;;;;;;;;;;;;;4999316;28;20024;-56
2022/02/11 10:46:29;;;;;;;;;;;;;;;;;;4998531;28;19928;-55
2022/02/11 10:48:55;;;;;;;;;;;;;;;;;;5001029;28;19926;-57
2022/02/11 10:51:20;;;;;;;;;;;;;;;;;;5002138;28;19929;-55
2022/02/11 10:53:45;;;;;;;;;;;;;;;;;;5009146;28;20120;-56
2022/02/11 10:56:11;;;;;;;;;;;;;;;;;;5006686;28;19925;-57
2022/02/11 10:58:36;;;;;;;;;;;;;;;;;;5006396;28;19932;-56
2022/02/11 11:01:03;;;;;;;;;;;;;;;;;;4998042;28;19933;-56
2022/02/11 11:03:31;;;;;;;;;;;;;;;;;;4983051;28;20413;-57
2022/02/11 11:05:56;;;;;;;;;;;;;;;;;;4997961;28;19926;-55
2022/02/11 11:08:22;;;;;;;;;;;;;;;;;;4998074;28;19987;-56
2022/02/11 11:10:47;;;;;;;;;;;;;;;;;;4997708;28;19974;-55
2022/02/11 11:13:12;;;;;;;;;;;;;;;;;;4996500;28;20072;-56
2022/02/11 11:15:38;;;;;;;;;;;;;;;;;;4995833;28;19921;-55
2022/02/11 11:18:05;;;;;;;;;;;;;;;;;;4996925;28;20357;-56
2022/02/11 11:20:33;;;;;;;;;;;;;;;;;;4996593;28;19977;-57
2022/02/11 11:22:59;;;;;;;;;;;;;;;;;;4998085;28;20235;-56
2022/02/11 11:25:24;;;;;;;;;;;;;;;;;;4997351;28;19933;-57
2022/02/11 11:27:50;;;;;;;;;;;;;;;;;;4996447;28;19921;-56
2022/02/11 11:30:15;;;;;;;;;;;;;;;;;;4997268;28;20354;-55
2022/02/11 11:32:44;;;;;;;;;;;;;;;;;;4994904;28;24386;-55
2022/02/11 11:35:09;;;;;;;;;;;;;;;;;;4997151;28;20034;-56
2022/02/11 11:37:35;;;;;;;;;;;;;;;;;;4996857;28;19922;-56
2022/02/11 11:40:00;;;;;;;;;;;;;;;;;;4996346;28;19926;-56
2022/02/11 11:42:26;;;;;;;;;;;;;;;;;;4999051;28;19995;-53
2022/02/11 11:44:52;;;;;;;;;;;;;;;;;;5000853;28;19929;-56
2022/02/11 11:47:18;;;;;;;;;;;;;;;;;;5002632;28;19925;-57
2022/02/11 11:49:43;;;;;;;;;;;;;;;;;;5011849;28;19925;-57
2022/02/11 11:52:09;;;;;;;;;;;;;;;;;;5002813;28;19949;-54
2022/02/11 11:54:34;;;;;;;;;;;;;;;;;;4995162;28;19921;-56
2022/02/11 11:57:00;;;;;;;;;;;;;;;;;;4999480;28;19925;-55
2022/02/11 11:59:25;;;;;;;;;;;;;;;;;;4997320;28;19989;-56
2022/02/11 12:01:54;;;;;;;;;;;;;;;;;;4997479;28;19961;-56
2022/02/11 12:04:23;;;;;;;;;;;;;;;;;;4996404;28;19976;-55
2022/02/11 12:06:48;;;;;;;;;;;;;;;;;;4996901;28;19925;-56
2022/02/11 12:09:13;;;;;;;;;;;;;;;;;;4998093;28;19929;-56
2022/02/11 12:11:39;;;;;;;;;;;;;;;;;;4997553;28;19940;-57
2022/02/11 12:14:04;;;;;;;;;;;;;;;;;;4995341;28;19922;-55
2022/02/11 12:16:30;;;;;;;;;;;;;;;;;;4994002;28;20460;-53
2022/02/11 12:18:55;;;;;;;;;;;;;;;;;;4996431;28;20008;-54
2022/02/11 12:21:21;;;;;;;;;;;;;;;;;;5014881;28;19926;-55
2022/02/11 12:29:14;;;;;;;;;;;;;;;;;;4995625;28;19928;-54
2022/02/11 12:31:41;;;;;;;;;;;;;;;;;;4996539;28;19933;-54
2022/02/11 12:34:06;;;;;;;;;;;;;;;;;;4997046;28;19985;-56
2022/02/11 12:36:32;;;;;;;;;;;;;;;;;;4995371;28;20446;-56
2022/02/11 12:38:57;;;;;;;;;;;;;;;;;;4995864;28;19973;-55
2022/02/11 12:41:22;;;;;;;;;;;;;;;;;;4995733;28;19948;-56
2022/02/11 12:43:48;;;;;;;;;;;;;;;;;;4995230;28;19917;-57
2022/02/11 12:46:13;;;;;;;;;;;;;;;;;;4997557;28;20013;-53
2022/02/11 12:48:41;;;;;;;;;;;;;;;;;;4998971;28;19921;-56
2022/02/11 12:51:06;;;;;;;;;;;;;;;;;;5000208;28;20104;-56
2022/02/11 12:53:32;;;;;;;;;;;;;;;;;;4998807;28;20020;-56
2022/02/11 12:55:58;;;;;;;;;;;;;;;;;;4998804;28;20321;-56
2022/02/11 12:58:24;;;;;;;;;;;;;;;;;;4998876;28;19925;-57
2022/02/11 13:00:50;;;;;;;;;;;;;;;;;;5000015;28;19928;-56
2022/02/11 13:03:16;;;;;;;;;;;;;;;;;;5000396;28;19932;-56
2022/02/11 13:05:46;;;;;;;;;;;;;;;;;;4999818;28;19926;-56
2022/02/11 13:08:11;;;;;;;;;;;;;;;;;;5000114;28;19932;-56
2022/02/11 13:10:37;;;;;;;;;;;;;;;;;;4999131;28;19926;-54
2022/02/11 13:13:02;;;;;;;;;;;;;;;;;;4999262;28;19921;-56
2022/02/11 13:15:28;;;;;;;;;;;;;;;;;;4998639;28;19921;-53
2022/02/11 13:17:53;;;;;;;;;;;;;;;;;;5000119;28;19953;-53
2022/02/11 13:20:19;;;;;;;;;;;;;;;;;;4998311;28;20450;-54
2022/02/11 13:22:44;;;;;;;;;;;;;;;;;;5000118;28;19928;-54
2022/02/11 13:25:10;;;;;;;;;;;;;;;;;;5000777;28;19934;-54
2022/02/11 13:27:36;;;;;;;;;;;;;;;;;;4996907;28;20046;-56
2022/02/11 13:30:01;;;;;;;;;;;;;;;;;;4999148;28;19921;-57
2022/02/11 13:32:27;;;;;;;;;;;;;;;;;;4999204;28;20024;-55
2022/02/11 13:34:53;;;;;;;;;;;;;;;;;;4999142;28;20005;-55
2022/02/11 13:37:18;;;;;;;;;;;;;;;;;;4998314;28;20040;-56
2022/02/11 13:39:44;;;;;;;;;;;;;;;;;;4999858;28;20351;-56
2022/02/11 13:42:09;;;;;;;;;;;;;;;;;;4998252;28;20024;-54
2022/02/11 13:44:35;;;;;;;;;;;;;;;;;;4998753;28;20287;-55
2022/02/11 13:47:00;;;;;;;;;;;;;;;;;;4998718;28;19996;-55
2022/02/11 13:49:26;;;;;;;;;;;;;;;;;;4997377;28;19925;-56
2022/02/11 13:53:01;;;;;;;;;;;;;;;;;;4998020;28;19929;-55
2022/02/11 13:54:37;;;;;;;;;;;;;;;;;;4998082;28;19945;-54
2022/02/11 13:57:02;;;;;;;;;;;;;;;;;;4999323;28;19993;-56
2022/02/11 13:59:28;;;;;;;;;;;;;;;;;;4997373;28;19921;-57
2022/02/11 14:01:53;;;;;;;;;;;;;;;;;;5016374;28;20016;-57
2022/02/11 14:04:18;;;;;;;;;;;;;;;;;;4999663;28;19987;-57
2022/02/11 14:06:44;;;;;;;;;;;;;;;;;;5005778;28;19937;-57
2022/02/11 14:09:10;;;;;;;;;;;;;;;;;;5003655;28;19921;-57
2022/02/11 14:11:35;;;;;;;;;;;;;;;;;;4999861;28;20024;-57
2022/02/11 14:14:01;;;;;;;;;;;;;;;;;;4998450;28;20754;-57
2022/02/11 14:16:26;;;;;;;;;;;;;;;;;;4998807;28;19925;-53
2022/02/11 14:18:52;;;;;;;;;;;;;;;;;;4998595;28;19980;-57
2022/02/11 14:21:17;;;;;;;;;;;;;;;;;;4998476;28;19921;-57
2022/02/11 14:23:43;;;;;;;;;;;;;;;;;;4998185;28;19925;-57
2022/02/11 14:26:08;;;;;;;;;;;;;;;;;;4997597;28;19937;-56
2022/02/11 14:28:34;;;;;;;;;;;;;;;;;;4997273;28;20020;-56
2022/02/11 14:31:00;;;;;;;;;;;;;;;;;;4998013;28;20314;-57
2022/02/11 14:33:25;;;;;;;;;;;;;;;;;;4996966;28;20417;-56
2022/02/11 14:35:51;;;;;;;;;;;;;;;;;;4997666;28;19968;-57
2022/02/11 14:38:16;;;;;;;;;;;;;;;;;;4998228;28;19974;-57
2022/02/11 14:43:27;;;;;;;;;;;;;;;;;;5001129;28;20304;-56
2022/02/11 14:45:54;;;;;;;;;;;;;;;;;;4997667;28;20391;-57
2022/02/11 14:48:20;;;;;;;;;;;;;;;;;;5003820;28;20669;-58
2022/02/11 14:50:45;;;;;;;;;;;;;;;;;;5005820;28;19953;-54
2022/02/11 14:53:10;;;;;;;;;;;;;;;;;;4983420;28;19933;-55
2022/02/11 14:55:36;;;;;;;;;;;;;;;;;;4989171;28;21963;-57
2022/02/11 14:58:02;;;;;;;;;;;;;;;;;;4992862;28;19972;-54
2022/02/11 15:00:29;;;;;;;;;;;;;;;;;;5000964;28;20428;-56
2022/02/11 15:02:55;;;;;;;;;;;;;;;;;;4998633;28;19948;-57
2022/02/11 15:05:20;;;;;;;;;;;;;;;;;;4998779;28;19925;-54
2022/02/11 15:07:45;;;;;;;;;;;;;;;;;;4992804;28;19979;-55
2022/02/11 15:10:11;;;;;;;;;;;;;;;;;;4998525;28;19961;-55
2022/02/11 15:12:36;;;;;;;;;;;;;;;;;;4998284;28;19960;-54
2022/02/11 15:15:02;;;;;;;;;;;;;;;;;;4996880;28;20027;-56
2022/02/11 15:17:27;;;;;;;;;;;;;;;;;;4997392;28;20485;-53
2022/02/11 15:19:53;;;;;;;;;;;;;;;;;;4998388;28;19921;-56
2022/02/11 15:22:19;;;;;;;;;;;;;;;;;;4997756;28;19929;-55
2022/02/11 15:24:48;;;;;;;;;;;;;;;;;;4998834;28;19932;-53
2022/02/11 15:27:14;;;;;;;;;;;;;;;;;;4998531;28;19926;-54
2022/02/11 15:29:39;;;;;;;;;;;;;;;;;;4998380;28;19926;-54
2022/02/11 15:32:05;;;;;;;;;;;;;;;;;;4997142;28;19930;-56
2022/02/11 15:34:30;;;;;;;;;;;;;;;;;;4998701;28;19963;-56
2022/02/11 15:36:56;;;;;;;;;;;;;;;;;;4997531;28;19925;-56
2022/02/11 15:39:21;;;;;;;;;;;;;;;;;;4999333;28;19963;-53
2022/02/11 15:41:48;;;;;;;;;;;;;;;;;;4998420;28;19926;-56
2022/02/11 15:44:14;;;;;;;;;;;;;;;;;;4998746;28;21492;-53
2022/02/11 15:46:41;;;;;;;;;;;;;;;;;;4997938;28;20005;-56
2022/02/11 15:49:06;;;;;;;;;;;;;;;;;;4999680;28;19928;-55
2022/02/11 15:51:32;;;;;;;;;;;;;;;;;;4999032;28;20031;-54
2022/02/11 15:53:57;;;;;;;;;;;;;;;;;;5000095;28;19964;-53
2022/02/11 15:56:23;;;;;;;;;;;;;;;;;;4995534;28;20040;-53
2022/02/11 15:58:48;;;;;;;;;;;;;;;;;;5012160;28;19921;-56
2022/02/11 16:01:15;;;;;;;;;;;;;;;;;;5005060;28;20704;-54
2022/02/11 16:03:41;;;;;;;;;;;;;;;;;;4998408;28;19921;-55
2022/02/11 16:06:06;;;;;;;;;;;;;;;;;;4990059;28;19979;-56
2022/02/11 16:08:35;;;;;;;;;;;;;;;;;;4996207;28;20004;-57
2022/02/11 16:11:00;;;;;;;;;;;;;;;;;;4996451;28;19991;-57
2022/02/11 16:13:26;;;;;;;;;;;;;;;;;;4995979;28;19925;-55
2022/02/11 16:15:51;;;;;;;;;;;;;;;;;;4996137;28;19926;-56
2022/02/11 16:18:23;;;;;;;;;;;;;;;;;;4996388;28;20003;-57
2022/02/11 16:20:48;;;;;;;;;;;;;;;;;;4997305;28;20020;-56
2022/02/11 16:23:13;;;;;;;;;;;;;;;;;;4996854;28;19941;-56
2022/02/11 16:25:39;;;;;;;;;;;;;;;;;;4995925;28;19937;-53
2022/02/11 16:28:04;;;;;;;;;;;;;;;;;;4995087;28;19929;-55
2022/02/11 16:30:30;;;;;;;;;;;;;;;;;;4996112;28;19984;-54
2022/02/11 16:32:57;;;;;;;;;;;;;;;;;;4996908;28;19932;-57
2022/02/11 16:35:22;;;;;;;;;;;;;;;;;;4986867;28;19982;-56
2022/02/11 16:37:48;;;;;;;;;;;;;;;;;;4995955;28;20059;-55
2022/02/11 16:40:13;;;;;;;;;;;;;;;;;;4998583;28;19925;-54
2022/02/11 16:42:39;;;;;;;;;;;;;;;;;;4995358;28;19927;-56
2022/02/11 16:45:04;;;;;;;;;;;;;;;;;;4996016;28;19975;-57
2022/02/11 16:47:30;;;;;;;;;;;;;;;;;;4996479;28;19922;-57
2022/02/11 16:49:55;;;;;;;;;;;;;;;;;;4999022;28;19926;-55
2022/02/11 16:52:21;;;;;;;;;;;;;;;;;;4995487;28;19971;-56
2022/02/11 16:54:46;;;;;;;;;;;;;;;;;;4996440;28;20357;-56
2022/02/11 16:57:11;;;;;;;;;;;;;;;;;;4995941;28;19933;-56
2022/02/11 16:59:37;;;;;;;;;;;;;;;;;;4994380;28;20415;-55
2022/02/11 17:02:04;;;;;;;;;;;;;;;;;;4995507;28;19932;-56
2022/02/11 17:04:29;;;;;;;;;;;;;;;;;;4994653;28;19948;-57
2022/02/11 17:06:55;;;;;;;;;;;;;;;;;;4995648;28;20004;-55
2022/02/11 17:09:20;;;;;;;;;;;;;;;;;;4996404;28;19975;-57
2022/02/11 17:11:46;;;;;;;;;;;;;;;;;;4996899;28;19933;-56
2022/02/11 17:14:11;;;;;;;;;;;;;;;;;;4996621;28;19922;-56
2022/02/11 17:16:37;;;;;;;;;;;;;;;;;;4996627;28;19928;-55
2022/02/11 17:19:02;;;;;;;;;;;;;;;;;;4990021;28;19928;-55
2022/02/11 17:21:29;;;;;;;;;;;;;;;;;;4997563;28;19917;-54
2022/02/11 17:23:55;;;;;;;;;;;;;;;;;;4996835;28;19938;-57
2022/02/11 17:26:20;;;;;;;;;;;;;;;;;;4997583;28;19953;-54
2022/02/11 17:28:45;;;;;;;;;;;;;;;;;;5001726;28;19925;-56
2022/02/11 17:31:11;;;;;;;;;;;;;;;;;;5002755;28;20276;-56
2022/02/11 17:33:36;;;;;;;;;;;;;;;;;;5003512;28;19926;-56
2022/02/11 17:36:02;;;;;;;;;;;;;;;;;;4999673;28;19925;-54
2022/02/11 17:38:27;;;;;;;;;;;;;;;;;;4999513;28;20014;-56
2022/02/11 17:40:53;;;;;;;;;;;;;;;;;;5006862;28;20001;-56
2022/02/11 17:43:18;;;;;;;;;;;;;;;;;;4981455;28;20385;-55
2022/02/11 17:45:44;;;;;;;;;;;;;;;;;;4978807;28;19932;-55
2022/02/11 17:48:10;;;;;;;;;;;;;;;;;;4979211;28;20362;-54
2022/02/11 17:50:35;;;;;;;;;;;;;;;;;;4978914;28;19988;-57
2022/02/11 17:53:01;;;;;;;;;;;;;;;;;;4979098;28;19921;-56
2022/02/11 17:55:27;;;;;;;;;;;;;;;;;;4972504;28;19926;-57
2022/02/11 17:57:52;;;;;;;;;;;;;;;;;;4979803;28;19937;-57
2022/02/11 18:00:18;;;;;;;;;;;;;;;;;;4978716;28;19918;-57
2022/02/11 18:02:43;;;;;;;;;;;;;;;;;;4987768;28;20386;-56
2022/02/11 18:05:09;;;;;;;;;;;;;;;;;;4979865;28;19932;-57
2022/02/11 18:07:43;;;;;;;;;;;;;;;;;;4997457;28;19922;-54
2022/02/11 18:10:08;;;;;;;;;;;;;;;;;;4984045;28;21631;-57
2022/02/11 18:12:34;;;;;;;;;;;;;;;;;;4980115;28;19930;-58
2022/02/11 18:14:59;;;;;;;;;;;;;;;;;;5009218;28;19928;-57
2022/02/11 18:17:28;;;;;;;;;;;;;;;;;;4984896;28;19922;-57
2022/02/11 18:19:53;;;;;;;;;;;;;;;;;;4981771;28;19949;-56
2022/02/11 18:22:19;;;;;;;;;;;;;;;;;;4987090;28;19944;-56
2022/02/11 18:24:46;;;;;;;;;;;;;;;;;;4984380;28;19930;-56
2022/02/11 18:27:12;;;;;;;;;;;;;;;;;;4995110;28;19922;-56
2022/02/11 18:29:37;;;;;;;;;;;;;;;;;;4999887;28;19926;-56
2022/02/11 18:32:03;;;;;;;;;;;;;;;;;;4999068;28;19929;-57
2022/02/11 18:34:28;;;;;;;;;;;;;;;;;;5005693;28;19925;-55
2022/02/11 18:36:54;;;;;;;;;;;;;;;;;;4998183;28;19921;-55
2022/02/11 18:39:21;;;;;;;;;;;;;;;;;;4997465;28;19925;-55
2022/02/11 18:41:47;;;;;;;;;;;;;;;;;;4998143;28;20072;-54
2022/02/11 18:44:12;;;;;;;;;;;;;;;;;;4997440;28;19972;-55
2022/02/11 18:46:38;;;;;;;;;;;;;;;;;;4989171;28;20024;-56
2022/02/11 18:49:06;;;;;;;;;;;;;;;;;;4997927;28;19921;-56
2022/02/11 18:51:31;;;;;;;;;;;;;;;;;;4997308;28;20804;-56
2022/02/11 18:53:58;;;;;;;;;;;;;;;;;;4997904;28;19921;-56
2022/02/11 18:56:23;;;;;;;;;;;;;;;;;;4996790;28;20658;-56
2022/02/11 18:58:49;;;;;;;;;;;;;;;;;;4998114;28;19921;-56
2022/02/11 19:01:14;;;;;;;;;;;;;;;;;;4997812;28;19926;-55
2022/02/11 19:03:40;;;;;;;;;;;;;;;;;;4996610;28;19925;-56
2022/02/11 19:06:05;;;;;;;;;;;;;;;;;;4997067;28;19971;-56
2022/02/11 19:08:31;;;;;;;;;;;;;;;;;;4995386;28;19921;-54
2022/02/11 19:10:58;;;;;;;;;;;;;;;;;;4991266;28;19933;-55
2022/02/11 19:13:23;;;;;;;;;;;;;;;;;;4974261;28;20369;-56
2022/02/11 19:15:49;;;;;;;;;;;;;;;;;;4977357;28;20012;-56
2022/02/11 19:18:14;;;;;;;;;;;;;;;;;;4978050;28;20359;-57
2022/02/11 19:20:39;;;;;;;;;;;;;;;;;;4977363;28;20033;-54
2022/02/11 19:23:05;;;;;;;;;;;;;;;;;;4977334;28;20040;-55
2022/02/11 19:25:31;;;;;;;;;;;;;;;;;;4975798;28;20520;-55
2022/02/11 19:27:57;;;;;;;;;;;;;;;;;;4979004;28;19988;-56
2022/02/11 19:30:22;;;;;;;;;;;;;;;;;;4978872;28;20353;-52
2022/02/11 19:32:48;;;;;;;;;;;;;;;;;;4997813;28;20036;-56
2022/02/11 19:35:13;;;;;;;;;;;;;;;;;;4997151;28;20036;-55
2022/02/11 19:37:39;;;;;;;;;;;;;;;;;;4996453;28;19944;-56
2022/02/11 19:40:05;;;;;;;;;;;;;;;;;;4998073;28;19932;-56
2022/02/11 19:42:31;;;;;;;;;;;;;;;;;;5003409;28;19922;-56
2022/02/11 19:44:56;;;;;;;;;;;;;;;;;;5005044;28;19932;-56
2022/02/11 19:47:23;;;;;;;;;;;;;;;;;;4996007;28;20322;-54
2022/02/11 19:49:49;;;;;;;;;;;;;;;;;;4997571;28;19922;-56
2022/02/11 19:52:14;;;;;;;;;;;;;;;;;;4998139;28;19939;-56
2022/02/11 19:54:40;;;;;;;;;;;;;;;;;;4996664;28;20392;-54
2022/02/11 19:57:05;;;;;;;;;;;;;;;;;;4996611;28;19961;-56
2022/02/11 19:59:33;;;;;;;;;;;;;;;;;;4997007;28;19939;-56
2022/02/11 20:01:59;;;;;;;;;;;;;;;;;;4997408;28;20653;-55
2022/02/11 20:04:24;;;;;;;;;;;;;;;;;;4996717;28;19956;-54
2022/02/11 20:06:50;;;;;;;;;;;;;;;;;;4997519;28;19928;-56
2022/02/11 20:09:15;;;;;;;;;;;;;;;;;;4997734;28;19957;-56